Time;durP1;ratioP1;P1;durP2;ratioP2;P2;SDS_P1;SDS_P2;PMS_P1;PMS_P2;Temp;Humidity;BMP_temperature;BMP_pressure;BME280_temperature;BME280_humidity;BME280_pressure;Samples;Min_cycle;Max_cycle;Signal;HPM_P1;HPM_P2
2023/09/25 00:01:11;;;;;;;;;;;9.00;99.90;;;;;;5084782;28;19927;-75
2023/09/25 00:03:37;;;;;;;;;;;9.00;99.90;;;;;;5080372;28;19921;-74
2023/09/25 00:06:04;;;;;;;;;;;8.90;99.90;;;;;;5084024;28;19927;-74
2023/09/25 00:08:32;;;;;;;;;;;8.90;99.90;;;;;;5079503;28;19927;-75
2023/09/25 00:10:59;;;;;;;;;;;8.90;99.90;;;;;;5077405;28;19991;-75
2023/09/25 00:13:25;;;;;;;;;;;8.90;99.90;;;;;;5077334;28;19983;-74
2023/09/25 00:15:52;;;;;;;;;;;8.80;99.90;;;;;;5084060;28;19927;-74
2023/09/25 00:18:19;;;;;;;;;;;8.80;99.90;;;;;;5082564;28;19921;-75
2023/09/25 00:20:45;;;;;;;;;;;8.80;99.90;;;;;;5084133;28;19952;-74
2023/09/25 00:23:12;;;;;;;;;;;8.80;99.90;;;;;;5084602;28;19955;-75
2023/09/25 00:25:40;;;;;;;;;;;8.80;99.90;;;;;;5084136;28;20430;-75
2023/09/25 00:28:06;;;;;;;;;;;8.70;99.90;;;;;;5084264;28;19958;-75
2023/09/25 00:30:33;;;;;;;;;;;8.80;99.90;;;;;;5084061;28;20214;-75
2023/09/25 00:33:00;;;;;;;;;;;8.70;99.90;;;;;;5080054;28;19921;-74
2023/09/25 00:35:27;;;;;;;;;;;8.70;99.90;;;;;;5083988;28;19962;-74
2023/09/25 00:37:53;;;;;;;;;;;8.70;99.90;;;;;;5087080;28;19927;-75
2023/09/25 00:40:24;;;;;;;;;;;8.70;99.90;;;;;;5089234;28;20461;-75
2023/09/25 00:42:53;;;;;;;;;;;8.70;99.90;;;;;;5076422;28;19921;-75
2023/09/25 00:45:20;;;;;;;;;;;8.70;99.90;;;;;;5078406;28;20234;-74
2023/09/25 00:47:47;;;;;;;;;;;8.70;99.90;;;;;;5081228;28;20238;-74
2023/09/25 00:50:14;;;;;;;;;;;8.70;99.90;;;;;;5070575;28;19980;-74
2023/09/25 00:52:42;;;;;;;;;;;8.70;99.90;;;;;;5083575;28;20269;-75
2023/09/25 00:55:09;;;;;;;;;;;8.60;99.90;;;;;;5083560;28;19955;-75
2023/09/25 00:57:37;;;;;;;;;;;8.70;99.90;;;;;;5076808;28;20210;-74
2023/09/25 01:00:10;;;;;;;;;;;8.60;99.90;;;;;;5072134;28;19959;-75
2023/09/25 01:02:39;;;;;;;;;;;8.60;99.90;;;;;;5077373;28;20299;-75
2023/09/25 01:05:08;;;;;;;;;;;8.60;99.90;;;;;;5071754;28;20359;-75
2023/09/25 01:07:35;;;;;;;;;;;8.50;99.90;;;;;;5074835;28;19987;-75
2023/09/25 01:10:06;;;;;;;;;;;8.50;99.90;;;;;;5087186;28;19960;-74
2023/09/25 01:12:33;;;;;;;;;;;8.40;99.90;;;;;;5083251;28;20109;-75
2023/09/25 01:15:00;;;;;;;;;;;8.40;99.90;;;;;;5074354;28;19928;-74
2023/09/25 01:17:28;;;;;;;;;;;8.30;99.90;;;;;;5083602;28;19948;-74
2023/09/25 01:19:55;;;;;;;;;;;8.30;99.90;;;;;;5078916;28;20264;-75
2023/09/25 01:22:23;;;;;;;;;;;8.30;99.90;;;;;;5079399;28;19992;-75
2023/09/25 01:24:50;;;;;;;;;;;8.20;99.90;;;;;;5083153;28;19951;-75
2023/09/25 01:27:16;;;;;;;;;;;8.20;99.90;;;;;;5083279;28;19987;-74
2023/09/25 01:29:43;;;;;;;;;;;8.20;99.90;;;;;;5083594;28;19980;-75
2023/09/25 01:32:11;;;;;;;;;;;8.20;99.90;;;;;;5083225;28;19999;-75
2023/09/25 01:34:37;;;;;;;;;;;8.10;99.90;;;;;;5084938;28;19928;-74
2023/09/25 01:37:05;;;;;;;;;;;8.10;99.90;;;;;;5083542;28;20158;-75
2023/09/25 01:39:35;;;;;;;;;;;8.00;99.90;;;;;;5083377;28;20145;-74
2023/09/25 01:42:01;;;;;;;;;;;8.00;99.90;;;;;;5083495;28;19920;-74
2023/09/25 01:44:28;;;;;;;;;;;8.00;99.90;;;;;;5083341;28;20000;-74
2023/09/25 01:46:56;;;;;;;;;;;7.90;99.90;;;;;;5082901;28;19920;-75
2023/09/25 01:49:23;;;;;;;;;;;7.90;99.90;;;;;;5083454;28;19959;-76
2023/09/25 01:51:50;;;;;;;;;;;7.90;99.90;;;;;;5083349;28;19983;-74
2023/09/25 01:54:16;;;;;;;;;;;7.90;99.90;;;;;;5083302;28;19920;-74
2023/09/25 01:56:46;;;;;;;;;;;7.80;99.90;;;;;;5083126;28;19992;-74
2023/09/25 01:59:13;;;;;;;;;;;7.80;99.90;;;;;;5084534;28;19948;-75
2023/09/25 02:01:40;;;;;;;;;;;7.80;99.90;;;;;;5082311;28;19991;-75
2023/09/25 02:04:07;;;;;;;;;;;7.80;99.90;;;;;;5086222;28;19988;-74
2023/09/25 02:06:34;;;;;;;;;;;7.70;99.90;;;;;;5083117;28;20145;-74
2023/09/25 02:09:01;;;;;;;;;;;7.70;99.90;;;;;;5083064;28;19958;-75
2023/09/25 02:11:28;;;;;;;;;;;7.70;99.90;;;;;;5074695;28;19924;-75
2023/09/25 02:13:55;;;;;;;;;;;7.70;99.90;;;;;;5079037;28;19987;-75
2023/09/25 02:16:22;;;;;;;;;;;7.70;99.90;;;;;;5086531;28;19947;-75
2023/09/25 02:18:49;;;;;;;;;;;7.60;99.90;;;;;;5082123;28;19995;-74
2023/09/25 02:21:15;;;;;;;;;;;7.60;99.90;;;;;;5083168;28;19939;-75
2023/09/25 02:23:42;;;;;;;;;;;7.60;99.90;;;;;;5086695;28;19948;-75
2023/09/25 02:26:08;;;;;;;;;;;7.60;99.90;;;;;;5082406;28;19991;-75
2023/09/25 02:28:35;;;;;;;;;;;7.60;99.90;;;;;;5084281;28;19920;-75
2023/09/25 02:31:03;;;;;;;;;;;7.60;99.90;;;;;;5086245;28;19920;-75
2023/09/25 02:33:30;;;;;;;;;;;7.60;99.90;;;;;;5086835;28;19959;-75
2023/09/25 02:36:03;;;;;;;;;;;7.60;99.90;;;;;;5078345;28;20113;-75
2023/09/25 02:38:29;;;;;;;;;;;7.60;99.90;;;;;;5075417;28;19991;-73
2023/09/25 02:40:56;;;;;;;;;;;7.60;99.90;;;;;;5078753;28;19987;-75
2023/09/25 02:43:23;;;;;;;;;;;7.50;99.90;;;;;;5082250;28;19920;-74
2023/09/25 02:45:49;;;;;;;;;;;7.50;99.90;;;;;;5081381;28;19963;-74
2023/09/25 02:48:17;;;;;;;;;;;7.50;99.90;;;;;;5089608;28;20210;-74
2023/09/25 02:50:44;;;;;;;;;;;7.50;99.90;;;;;;5086260;28;20238;-75
2023/09/25 02:53:11;;;;;;;;;;;7.50;99.90;;;;;;5086280;28;19921;-75
2023/09/25 02:55:37;;;;;;;;;;;7.40;99.90;;;;;;5085859;28;20162;-75
2023/09/25 02:58:04;;;;;;;;;;;7.50;99.90;;;;;;5086147;28;20148;-75
2023/09/25 03:00:31;;;;;;;;;;;7.40;99.90;;;;;;5086861;28;20248;-75
2023/09/25 03:02:58;;;;;;;;;;;7.40;99.90;;;;;;5081790;28;21217;-75
2023/09/25 03:05:26;;;;;;;;;;;7.40;99.90;;;;;;5085448;28;20273;-74
2023/09/25 03:07:53;;;;;;;;;;;7.40;99.90;;;;;;5085852;28;19988;-74
2023/09/25 03:10:21;;;;;;;;;;;7.40;99.90;;;;;;5086266;28;19928;-75
2023/09/25 03:12:48;;;;;;;;;;;7.30;99.90;;;;;;5085863;28;19952;-75
2023/09/25 03:15:14;;;;;;;;;;;7.40;99.90;;;;;;5085566;28;19921;-75
2023/09/25 03:17:41;;;;;;;;;;;7.40;99.90;;;;;;5089079;28;20177;-75
2023/09/25 03:20:15;;;;;;;;;;;7.40;99.90;;;;;;5093903;28;19920;-75
2023/09/25 03:22:43;;;;;;;;;;;7.40;99.90;;;;;;5087701;28;19920;-75
2023/09/25 03:25:10;;;;;;;;;;;7.30;99.90;;;;;;5085082;28;19967;-76
2023/09/25 03:27:37;;;;;;;;;;;7.30;99.90;;;;;;5085760;28;19928;-75
2023/09/25 03:30:05;;;;;;;;;;;7.30;99.90;;;;;;5085813;28;20161;-75
2023/09/25 03:32:32;;;;;;;;;;;7.30;99.90;;;;;;5085252;28;19921;-75
2023/09/25 03:34:58;;;;;;;;;;;7.30;99.90;;;;;;5085258;28;19920;-75
2023/09/25 03:37:25;;;;;;;;;;;7.30;99.90;;;;;;5082165;28;19920;-75
2023/09/25 03:39:53;;;;;;;;;;;7.30;99.90;;;;;;5086471;28;19975;-76
2023/09/25 03:42:19;;;;;;;;;;;7.30;99.90;;;;;;5085056;28;20133;-75
2023/09/25 03:44:47;;;;;;;;;;;7.30;99.90;;;;;;5085008;28;19966;-75
2023/09/25 03:47:13;;;;;;;;;;;7.20;99.90;;;;;;5085498;28;19927;-75
2023/09/25 03:49:42;;;;;;;;;;;7.20;99.90;;;;;;5081234;28;19956;-75
2023/09/25 03:52:08;;;;;;;;;;;7.20;99.90;;;;;;5085234;28;19920;-75
2023/09/25 03:54:35;;;;;;;;;;;7.20;99.90;;;;;;5084918;28;20152;-73
2023/09/25 03:57:04;;;;;;;;;;;7.10;99.90;;;;;;5085709;28;19920;-75
2023/09/25 03:59:30;;;;;;;;;;;7.10;99.90;;;;;;5093971;28;19975;-75
2023/09/25 04:01:57;;;;;;;;;;;7.10;99.90;;;;;;5077147;28;19921;-75
2023/09/25 04:04:23;;;;;;;;;;;7.10;99.90;;;;;;5084521;28;20218;-75
2023/09/25 04:06:50;;;;;;;;;;;7.10;99.90;;;;;;5079556;28;20007;-75
2023/09/25 04:09:17;;;;;;;;;;;7.10;99.90;;;;;;5086483;28;19983;-75
2023/09/25 04:11:43;;;;;;;;;;;7.00;99.90;;;;;;5081427;28;19932;-75
2023/09/25 04:14:11;;;;;;;;;;;7.10;99.90;;;;;;5080677;28;19988;-75
2023/09/25 04:16:38;;;;;;;;;;;7.10;99.90;;;;;;5087462;28;19979;-75
2023/09/25 04:19:05;;;;;;;;;;;7.10;99.90;;;;;;5084705;28;19921;-75
2023/09/25 04:21:32;;;;;;;;;;;7.00;99.90;;;;;;5084587;28;19963;-74
2023/09/25 04:24:00;;;;;;;;;;;7.00;99.90;;;;;;5084774;28;19978;-75
2023/09/25 04:26:27;;;;;;;;;;;7.00;99.90;;;;;;5080979;28;19928;-75
2023/09/25 04:28:53;;;;;;;;;;;7.00;99.90;;;;;;5084346;28;20236;-76
2023/09/25 04:31:21;;;;;;;;;;;7.00;99.90;;;;;;5084599;28;19967;-75
2023/09/25 04:33:48;;;;;;;;;;;7.00;99.90;;;;;;5084447;28;19989;-75
2023/09/25 04:36:15;;;;;;;;;;;7.00;99.90;;;;;;5083554;28;20115;-76
2023/09/25 04:38:41;;;;;;;;;;;6.90;99.90;;;;;;5084430;28;19926;-76
2023/09/25 04:41:08;;;;;;;;;;;6.90;99.90;;;;;;5084574;28;19996;-74
2023/09/25 04:43:34;;;;;;;;;;;6.90;99.90;;;;;;5081387;28;19983;-75
2023/09/25 04:46:01;;;;;;;;;;;6.90;99.90;;;;;;5082792;28;19921;-74
2023/09/25 04:48:30;;;;;;;;;;;6.90;99.90;;;;;;5079601;28;19920;-75
2023/09/25 04:50:57;;;;;;;;;;;6.90;99.90;;;;;;5076442;28;20118;-74
2023/09/25 04:53:23;;;;;;;;;;;6.90;99.90;;;;;;5075375;28;19983;-73
2023/09/25 04:55:50;;;;;;;;;;;6.90;99.90;;;;;;5078417;28;20186;-75
2023/09/25 04:58:17;;;;;;;;;;;6.80;99.90;;;;;;5080161;28;20138;-74
2023/09/25 05:00:44;;;;;;;;;;;6.90;99.90;;;;;;5074230;28;19927;-74
2023/09/25 05:03:11;;;;;;;;;;;6.70;99.90;;;;;;5077769;28;19921;-76
2023/09/25 05:05:39;;;;;;;;;;;6.70;99.90;;;;;;5079358;28;19974;-75
2023/09/25 05:08:05;;;;;;;;;;;6.70;99.90;;;;;;5073583;28;19943;-75
2023/09/25 05:10:32;;;;;;;;;;;6.70;99.90;;;;;;5080106;28;19920;-73
2023/09/25 05:12:59;;;;;;;;;;;6.70;99.90;;;;;;5076455;28;20224;-75
2023/09/25 05:15:25;;;;;;;;;;;6.70;99.90;;;;;;5072207;28;19920;-74
2023/09/25 05:17:52;;;;;;;;;;;6.70;99.90;;;;;;5077567;28;19988;-74
2023/09/25 05:20:22;;;;;;;;;;;6.70;99.90;;;;;;5075770;28;19990;-73
2023/09/25 05:22:50;;;;;;;;;;;6.70;99.90;;;;;;5078248;28;19920;-73
2023/09/25 05:25:18;;;;;;;;;;;6.70;99.90;;;;;;5079373;28;19979;-73
2023/09/25 05:27:45;;;;;;;;;;;6.70;99.90;;;;;;5084231;28;19955;-73
2023/09/25 05:30:13;;;;;;;;;;;6.60;99.90;;;;;;5077451;28;19983;-73
2023/09/25 05:32:40;;;;;;;;;;;6.60;99.90;;;;;;5075849;28;19920;-73
2023/09/25 05:35:07;;;;;;;;;;;6.60;99.90;;;;;;5079304;28;19927;-75
2023/09/25 05:37:34;;;;;;;;;;;6.60;99.90;;;;;;5075775;28;19979;-73
2023/09/25 05:40:02;;;;;;;;;;;6.60;99.90;;;;;;5076588;28;20158;-73
2023/09/25 05:42:30;;;;;;;;;;;6.60;99.90;;;;;;5086267;28;19920;-74
2023/09/25 05:44:56;;;;;;;;;;;6.60;99.90;;;;;;5084094;28;19977;-75
2023/09/25 05:47:23;;;;;;;;;;;6.60;99.90;;;;;;5084863;28;19971;-75
2023/09/25 05:49:50;;;;;;;;;;;6.60;99.90;;;;;;5083400;28;19958;-75
2023/09/25 05:52:17;;;;;;;;;;;6.60;99.90;;;;;;5083322;28;19983;-74
2023/09/25 05:54:44;;;;;;;;;;;6.60;99.90;;;;;;5082874;28;19929;-75
2023/09/25 05:57:12;;;;;;;;;;;6.60;99.90;;;;;;5082948;28;19947;-75
2023/09/25 05:59:39;;;;;;;;;;;6.60;99.90;;;;;;5082882;28;19959;-74
2023/09/25 06:02:05;;;;;;;;;;;6.60;99.90;;;;;;5086739;28;19920;-75
2023/09/25 06:04:34;;;;;;;;;;;6.60;99.90;;;;;;5083659;28;20107;-75
2023/09/25 06:07:01;;;;;;;;;;;6.60;99.90;;;;;;5085037;28;19927;-75
2023/09/25 06:09:28;;;;;;;;;;;6.70;99.90;;;;;;5087351;28;19920;-75
2023/09/25 06:11:55;;;;;;;;;;;6.70;99.90;;;;;;5087049;28;20169;-75
2023/09/25 06:14:23;;;;;;;;;;;6.70;99.90;;;;;;5087084;28;19966;-75
2023/09/25 06:16:50;;;;;;;;;;;6.70;99.90;;;;;;5085280;28;19956;-74
2023/09/25 06:19:18;;;;;;;;;;;6.80;99.90;;;;;;5086993;28;20001;-75
2023/09/25 06:21:44;;;;;;;;;;;6.80;99.90;;;;;;5087021;28;19971;-75
2023/09/25 06:24:12;;;;;;;;;;;6.90;99.90;;;;;;5086743;28;20184;-74
2023/09/25 06:26:39;;;;;;;;;;;6.90;99.90;;;;;;5086517;28;19920;-74
2023/09/25 06:29:06;;;;;;;;;;;7.00;99.90;;;;;;5086620;28;19959;-75
2023/09/25 06:31:34;;;;;;;;;;;7.10;99.90;;;;;;5086744;28;19920;-75
2023/09/25 06:34:01;;;;;;;;;;;7.10;99.90;;;;;;5079317;28;19924;-74
2023/09/25 06:36:27;;;;;;;;;;;7.20;99.90;;;;;;5082588;28;19955;-74
2023/09/25 06:38:54;;;;;;;;;;;7.30;99.90;;;;;;5083196;28;19972;-74
2023/09/25 06:41:21;;;;;;;;;;;7.40;99.90;;;;;;5088795;28;19924;-74
2023/09/25 06:43:48;;;;;;;;;;;7.50;99.90;;;;;;5090242;28;19987;-74
2023/09/25 06:46:15;;;;;;;;;;;7.60;99.90;;;;;;5088689;28;19920;-75
2023/09/25 06:48:43;;;;;;;;;;;7.80;99.90;;;;;;5086425;28;19928;-74
2023/09/25 06:51:10;;;;;;;;;;;7.90;99.90;;;;;;5086257;28;19921;-74
2023/09/25 06:53:37;;;;;;;;;;;8.00;99.90;;;;;;5086043;28;19920;-75
2023/09/25 06:56:03;;;;;;;;;;;8.10;99.90;;;;;;5085778;28;19920;-75
2023/09/25 06:58:30;;;;;;;;;;;8.20;99.90;;;;;;5086237;28;19920;-74
2023/09/25 07:00:57;;;;;;;;;;;8.30;99.90;;;;;;5085970;28;19920;-75
2023/09/25 07:03:23;;;;;;;;;;;8.40;99.90;;;;;;5082341;28;19980;-75
2023/09/25 07:05:51;;;;;;;;;;;8.50;99.90;;;;;;5084127;28;19976;-75
2023/09/25 07:08:18;;;;;;;;;;;8.70;99.90;;;;;;5091695;28;20209;-74
2023/09/25 07:10:45;;;;;;;;;;;8.70;99.90;;;;;;5093465;28;19927;-75
2023/09/25 07:13:12;;;;;;;;;;;8.80;99.90;;;;;;5089303;28;19921;-75
2023/09/25 07:15:38;;;;;;;;;;;8.90;99.90;;;;;;5084772;28;19955;-75
2023/09/25 07:18:05;;;;;;;;;;;8.90;99.90;;;;;;5085281;28;19920;-74
2023/09/25 07:20:32;;;;;;;;;;;9.00;99.90;;;;;;5089811;28;19956;-75
2023/09/25 07:23:00;;;;;;;;;;;9.20;99.90;;;;;;5086074;28;19983;-74
2023/09/25 07:25:26;;;;;;;;;;;9.30;99.90;;;;;;5081955;28;20263;-74
2023/09/25 07:27:53;;;;;;;;;;;9.40;99.90;;;;;;5084735;28;19920;-75
2023/09/25 07:30:20;;;;;;;;;;;9.50;99.90;;;;;;5085780;28;19991;-75
2023/09/25 07:32:46;;;;;;;;;;;9.60;99.90;;;;;;5085654;28;20098;-75
2023/09/25 07:35:15;;;;;;;;;;;9.70;99.90;;;;;;5085203;28;19979;-75
2023/09/25 07:37:41;;;;;;;;;;;9.70;99.90;;;;;;5085302;28;20264;-75
2023/09/25 07:40:11;;;;;;;;;;;9.80;99.90;;;;;;5082120;28;19988;-75
2023/09/25 07:42:38;;;;;;;;;;;10.00;99.90;;;;;;5085127;28;19920;-75
2023/09/25 07:45:09;;;;;;;;;;;10.00;99.90;;;;;;5085049;28;19920;-75
2023/09/25 07:47:38;;;;;;;;;;;10.10;99.90;;;;;;5085217;28;19927;-73
2023/09/25 07:50:10;;;;;;;;;;;10.20;99.90;;;;;;5086045;28;19921;-75
2023/09/25 07:52:38;;;;;;;;;;;10.30;99.90;;;;;;5088386;28;19920;-75
2023/09/25 07:55:06;;;;;;;;;;;10.40;99.90;;;;;;5084662;28;19960;-75
2023/09/25 07:57:36;;;;;;;;;;;10.50;99.90;;;;;;5085239;28;19956;-75
2023/09/25 08:00:10;;;;;;;;;;;10.60;99.90;;;;;;5078357;28;20261;-75
2023/09/25 08:02:47;;;;;;;;;;;10.70;99.90;;;;;;5085097;28;19920;-75
2023/09/25 08:05:14;;;;;;;;;;;10.70;99.90;;;;;;5084542;28;19962;-75
2023/09/25 08:07:41;;;;;;;;;;;10.90;99.90;;;;;;5084848;28;19928;-76
2023/09/25 08:10:08;;;;;;;;;;;11.00;99.90;;;;;;5084872;28;19920;-75
2023/09/25 08:12:36;;;;;;;;;;;11.10;99.90;;;;;;5084614;28;19983;-75
2023/09/25 08:15:03;;;;;;;;;;;11.20;99.90;;;;;;5083976;28;19988;-75
2023/09/25 08:17:29;;;;;;;;;;;11.40;99.90;;;;;;5085537;28;19920;-76
2023/09/25 08:19:56;;;;;;;;;;;11.40;99.90;;;;;;5085474;28;19928;-75
2023/09/25 08:22:23;;;;;;;;;;;11.60;99.90;;;;;;5084583;28;19920;-76
2023/09/25 08:24:50;;;;;;;;;;;11.80;99.90;;;;;;5084140;28;19987;-75
2023/09/25 08:27:16;;;;;;;;;;;11.90;99.90;;;;;;5084478;28;19959;-76
2023/09/25 08:29:45;;;;;;;;;;;12.10;99.90;;;;;;5086072;28;19921;-76
2023/09/25 08:32:12;;;;;;;;;;;12.20;99.90;;;;;;5084226;28;20218;-75
2023/09/25 08:34:39;;;;;;;;;;;12.40;99.90;;;;;;5083773;28;19920;-76
2023/09/25 08:37:06;;;;;;;;;;;12.60;99.90;;;;;;5084119;28;20337;-75
2023/09/25 08:39:32;;;;;;;;;;;12.60;99.90;;;;;;5084213;28;20210;-75
2023/09/25 08:41:59;;;;;;;;;;;12.80;99.90;;;;;;5086020;28;19991;-75
2023/09/25 08:44:26;;;;;;;;;;;12.90;99.90;;;;;;5080886;28;19955;-74
2023/09/25 08:46:54;;;;;;;;;;;13.00;99.90;;;;;;5083494;28;19952;-76
2023/09/25 08:49:21;;;;;;;;;;;13.10;99.90;;;;;;5082962;28;19928;-76
2023/09/25 08:51:47;;;;;;;;;;;13.20;99.90;;;;;;5083631;28;19987;-75
2023/09/25 08:54:14;;;;;;;;;;;13.30;99.90;;;;;;5087189;28;19959;-74
2023/09/25 08:56:41;;;;;;;;;;;13.60;99.90;;;;;;5083748;28;20039;-75
2023/09/25 08:59:08;;;;;;;;;;;13.60;99.90;;;;;;5086900;28;19983;-76
2023/09/25 09:01:35;;;;;;;;;;;13.70;99.90;;;;;;5084004;28;19988;-76
2023/09/25 09:04:03;;;;;;;;;;;13.80;99.90;;;;;;5084401;28;20284;-76
2023/09/25 09:06:30;;;;;;;;;;;14.00;99.90;;;;;;5085637;28;19951;-76
2023/09/25 09:08:57;;;;;;;;;;;14.00;99.90;;;;;;5083335;28;19996;-76
2023/09/25 09:11:24;;;;;;;;;;;14.20;99.90;;;;;;5083772;28;19959;-74
2023/09/25 09:13:50;;;;;;;;;;;14.30;99.90;;;;;;5085047;28;19956;-76
2023/09/25 09:16:18;;;;;;;;;;;14.30;99.90;;;;;;5084327;28;20117;-77
2023/09/25 09:18:45;;;;;;;;;;;14.50;99.90;;;;;;5084781;28;19963;-76
2023/09/25 09:21:24;;;;;;;;;;;14.60;99.90;;;;;;5082011;28;20149;-76
2023/09/25 09:23:51;;;;;;;;;;;14.60;99.90;;;;;;5083287;28;20225;-76
2023/09/25 09:26:19;;;;;;;;;;;14.70;99.90;;;;;;5082889;28;19956;-75
2023/09/25 09:28:46;;;;;;;;;;;14.90;99.90;;;;;;5082960;28;19952;-75
2023/09/25 09:31:16;;;;;;;;;;;15.00;99.90;;;;;;5090360;28;20168;-76
2023/09/25 09:33:42;;;;;;;;;;;15.10;99.90;;;;;;5080023;28;20310;-76
2023/09/25 09:36:09;;;;;;;;;;;15.20;99.90;;;;;;5082648;28;19995;-75
2023/09/25 09:38:39;;;;;;;;;;;15.30;99.90;;;;;;5086429;28;20252;-74
2023/09/25 09:41:06;;;;;;;;;;;15.40;99.90;;;;;;5080074;28;19920;-76
2023/09/25 09:43:33;;;;;;;;;;;15.50;99.90;;;;;;5084809;28;20087;-76
2023/09/25 09:46:00;;;;;;;;;;;15.60;99.90;;;;;;5084797;28;19980;-76
2023/09/25 09:48:29;;;;;;;;;;;15.70;99.90;;;;;;5083388;28;19987;-76
2023/09/25 09:50:59;;;;;;;;;;;15.90;99.90;;;;;;5083360;28;19983;-76
2023/09/25 09:53:28;;;;;;;;;;;16.00;99.90;;;;;;5081263;28;20229;-75
2023/09/25 09:55:56;;;;;;;;;;;16.20;99.90;;;;;;5079619;28;20157;-76
2023/09/25 09:58:24;;;;;;;;;;;16.30;99.90;;;;;;5083200;28;19920;-76
2023/09/25 10:00:51;;;;;;;;;;;16.40;99.90;;;;;;5078221;28;19920;-76
2023/09/25 10:03:17;;;;;;;;;;;16.60;99.90;;;;;;5082992;28;19979;-75
2023/09/25 10:05:44;;;;;;;;;;;16.70;99.90;;;;;;5081466;28;19963;-75
2023/09/25 10:08:11;;;;;;;;;;;16.80;99.90;;;;;;5080813;28;19991;-76
2023/09/25 10:10:39;;;;;;;;;;;16.90;99.90;;;;;;5082775;28;20168;-75
2023/09/25 10:13:13;;;;;;;;;;;16.90;99.90;;;;;;5080566;28;19928;-76
2023/09/25 10:15:39;;;;;;;;;;;17.00;99.90;;;;;;5084344;28;19959;-76
2023/09/25 10:18:07;;;;;;;;;;;17.10;99.90;;;;;;5081993;28;19987;-75
2023/09/25 10:20:38;;;;;;;;;;;17.20;99.90;;;;;;5086509;28;19920;-76
2023/09/25 10:23:08;;;;;;;;;;;17.20;99.90;;;;;;5090075;28;19920;-76
2023/09/25 10:25:45;;;;;;;;;;;17.30;99.90;;;;;;5088957;28;19956;-75
2023/09/25 10:28:17;;;;;;;;;;;17.40;99.90;;;;;;5081062;28;19979;-73
2023/09/25 10:30:44;;;;;;;;;;;17.50;99.90;;;;;;5085082;28;19928;-76
2023/09/25 10:33:10;;;;;;;;;;;17.60;99.90;;;;;;5082960;28;19956;-76
2023/09/25 10:35:38;;;;;;;;;;;17.80;99.90;;;;;;5082071;28;19927;-76
2023/09/25 10:38:12;;;;;;;;;;;17.90;99.90;;;;;;5081904;28;19956;-75
2023/09/25 10:40:39;;;;;;;;;;;18.00;99.90;;;;;;5089141;28;19984;-73
2023/09/25 10:43:06;;;;;;;;;;;18.10;99.90;;;;;;5082229;28;19920;-76
2023/09/25 10:45:35;;;;;;;;;;;18.10;99.90;;;;;;5082028;28;20226;-76
2023/09/25 10:48:02;;;;;;;;;;;18.10;99.90;;;;;;5082735;28;19920;-76
2023/09/25 10:50:28;;;;;;;;;;;18.20;99.90;;;;;;5082391;28;20122;-75
2023/09/25 10:52:56;;;;;;;;;;;18.30;99.90;;;;;;5085338;28;19920;-76
2023/09/25 10:55:22;;;;;;;;;;;18.50;99.90;;;;;;5085748;28;19991;-76
2023/09/25 10:57:49;;;;;;;;;;;18.70;99.90;;;;;;5086056;28;20203;-76
2023/09/25 11:00:18;;;;;;;;;;;18.80;99.90;;;;;;5086047;28;19921;-76
2023/09/25 11:02:46;;;;;;;;;;;18.90;99.90;;;;;;5083022;28;20222;-73
2023/09/25 11:05:13;;;;;;;;;;;18.90;99.90;;;;;;5085350;28;20234;-74
2023/09/25 11:07:39;;;;;;;;;;;19.00;99.90;;;;;;5089121;28;20269;-76
2023/09/25 11:10:08;;;;;;;;;;;19.00;99.90;;;;;;5083214;28;19920;-76
2023/09/25 11:12:36;;;;;;;;;;;19.00;99.90;;;;;;5089727;28;19951;-76
2023/09/25 11:15:04;;;;;;;;;;;19.10;99.90;;;;;;5082871;28;19920;-76
2023/09/25 11:17:31;;;;;;;;;;;19.20;99.90;;;;;;5085550;28;19987;-76
2023/09/25 11:19:59;;;;;;;;;;;19.30;99.90;;;;;;5086246;28;19927;-75
2023/09/25 11:22:27;;;;;;;;;;;19.40;99.90;;;;;;5085788;28;19927;-76
2023/09/25 11:24:54;;;;;;;;;;;19.50;99.90;;;;;;5084506;28;19920;-75
2023/09/25 11:27:22;;;;;;;;;;;19.50;99.90;;;;;;5085799;28;19920;-75
2023/09/25 11:29:49;;;;;;;;;;;19.60;99.90;;;;;;5085875;28;19927;-76
2023/09/25 11:32:16;;;;;;;;;;;19.50;99.90;;;;;;5085778;28;19924;-75
2023/09/25 11:34:44;;;;;;;;;;;19.70;99.90;;;;;;5085043;28;19928;-76
2023/09/25 11:37:20;;;;;;;;;;;19.80;99.90;;;;;;5084837;28;19927;-75
2023/09/25 11:39:46;;;;;;;;;;;20.00;99.90;;;;;;5085298;28;19920;-75
2023/09/25 11:42:13;;;;;;;;;;;20.20;99.90;;;;;;5085444;28;19955;-75
2023/09/25 11:44:40;;;;;;;;;;;20.40;99.90;;;;;;5087028;28;19952;-75
2023/09/25 11:47:07;;;;;;;;;;;20.60;99.90;;;;;;5082587;28;20096;-75
2023/09/25 11:49:33;;;;;;;;;;;20.70;99.90;;;;;;5083043;28;19925;-75
2023/09/25 11:52:00;;;;;;;;;;;20.90;99.90;;;;;;5086040;28;19978;-73
2023/09/25 11:54:28;;;;;;;;;;;21.00;99.90;;;;;;5084629;28;20019;-75
2023/09/25 11:56:55;;;;;;;;;;;21.00;99.90;;;;;;5084521;28;19920;-75
2023/09/25 11:59:21;;;;;;;;;;;20.90;99.90;;;;;;5084848;28;19920;-75
2023/09/25 12:01:50;;;;;;;;;;;20.90;99.90;;;;;;5091435;28;19987;-75
2023/09/25 12:04:17;;;;;;;;;;;20.80;99.90;;;;;;5089998;28;19920;-74
2023/09/25 12:06:46;;;;;;;;;;;20.70;99.90;;;;;;5084451;28;19925;-76
2023/09/25 12:09:12;;;;;;;;;;;20.80;99.90;;;;;;5086871;28;19920;-75
2023/09/25 12:11:41;;;;;;;;;;;20.80;99.90;;;;;;5088655;28;19955;-76
2023/09/25 12:14:09;;;;;;;;;;;20.90;99.90;;;;;;5089375;28;19921;-76
2023/09/25 12:16:36;;;;;;;;;;;21.00;99.90;;;;;;5084536;28;19925;-76
2023/09/25 12:19:04;;;;;;;;;;;21.10;99.90;;;;;;5084390;28;19920;-76
2023/09/25 12:21:31;;;;;;;;;;;21.20;99.90;;;;;;5084719;28;19936;-76
2023/09/25 12:23:57;;;;;;;;;;;21.40;99.90;;;;;;5084651;28;19983;-76
2023/09/25 12:26:24;;;;;;;;;;;21.50;99.90;;;;;;5085451;28;19979;-76
2023/09/25 12:28:52;;;;;;;;;;;21.50;99.90;;;;;;5086773;28;19988;-75
2023/09/25 12:31:18;;;;;;;;;;;21.60;99.90;;;;;;5084608;28;19984;-75
2023/09/25 12:33:45;;;;;;;;;;;21.70;99.90;;;;;;5084561;28;20117;-75
2023/09/25 12:36:12;;;;;;;;;;;21.90;99.90;;;;;;5083630;28;19927;-76
2023/09/25 12:38:39;;;;;;;;;;;22.10;99.90;;;;;;5084457;28;19958;-76
2023/09/25 12:41:06;;;;;;;;;;;22.30;99.90;;;;;;5087647;28;19925;-76
2023/09/25 12:43:33;;;;;;;;;;;22.60;99.90;;;;;;5084565;28;19920;-76
2023/09/25 12:46:01;;;;;;;;;;;22.80;99.90;;;;;;5080900;28;19920;-77
2023/09/25 12:48:28;;;;;;;;;;;23.00;99.90;;;;;;5079171;28;19924;-76
2023/09/25 12:50:55;;;;;;;;;;;23.20;99.90;;;;;;5087024;28;19920;-76
2023/09/25 12:53:21;;;;;;;;;;;23.30;99.90;;;;;;5082052;28;19927;-76
2023/09/25 12:55:48;;;;;;;;;;;23.40;99.90;;;;;;5082601;28;19991;-76
2023/09/25 12:58:14;;;;;;;;;;;23.50;99.90;;;;;;5083038;28;19920;-76
2023/09/25 13:00:41;;;;;;;;;;;23.60;99.90;;;;;;5078442;28;19926;-75
2023/09/25 13:03:09;;;;;;;;;;;23.70;99.90;;;;;;5081452;28;19987;-75
2023/09/25 13:05:36;;;;;;;;;;;23.80;99.90;;;;;;5083280;28;19982;-74
2023/09/25 13:08:02;;;;;;;;;;;23.70;99.90;;;;;;5083491;28;19928;-73
2023/09/25 13:10:29;;;;;;;;;;;23.60;99.90;;;;;;5083353;28;20229;-75
2023/09/25 13:12:56;;;;;;;;;;;23.60;99.90;;;;;;5083582;28;19920;-75
2023/09/25 13:15:22;;;;;;;;;;;23.70;99.90;;;;;;5082000;28;19920;-76
2023/09/25 13:17:52;;;;;;;;;;;23.90;99.90;;;;;;5081770;28;19921;-75
2023/09/25 13:20:20;;;;;;;;;;;24.10;99.90;;;;;;5083154;28;19942;-75
2023/09/25 13:22:46;;;;;;;;;;;24.30;99.90;;;;;;5083592;28;20167;-76
2023/09/25 13:25:13;;;;;;;;;;;24.60;99.90;;;;;;5085297;28;19920;-76
2023/09/25 13:27:42;;;;;;;;;;;24.70;99.90;;;;;;5081317;28;20261;-76
2023/09/25 13:30:15;;;;;;;;;;;24.80;99.90;;;;;;5081119;28;19948;-75
2023/09/25 13:32:42;;;;;;;;;;;24.80;99.90;;;;;;5083362;28;19920;-74
2023/09/25 13:35:09;;;;;;;;;;;24.70;99.90;;;;;;5080398;28;20100;-75
2023/09/25 13:37:37;;;;;;;;;;;24.60;99.90;;;;;;5083004;28;20320;-75
2023/09/25 13:40:06;;;;;;;;;;;24.60;99.90;;;;;;5086717;28;19983;-75
2023/09/25 13:42:33;;;;;;;;;;;24.60;99.90;;;;;;5082849;28;19955;-74
2023/09/25 13:44:59;;;;;;;;;;;24.70;99.90;;;;;;5082787;28;19988;-75
2023/09/25 13:47:26;;;;;;;;;;;24.80;99.90;;;;;;5083473;28;19987;-75
2023/09/25 13:49:53;;;;;;;;;;;24.80;99.90;;;;;;5083281;28;20114;-75
2023/09/25 13:52:20;;;;;;;;;;;24.90;99.90;;;;;;5085619;28;20007;-74
2023/09/25 13:54:48;;;;;;;;;;;25.00;99.90;;;;;;5082559;28;19991;-74
2023/09/25 13:57:15;;;;;;;;;;;25.10;99.90;;;;;;5083171;28;19921;-75
2023/09/25 13:59:43;;;;;;;;;;;25.20;99.90;;;;;;5082913;28;19943;-75
2023/09/25 14:02:10;;;;;;;;;;;25.30;99.90;;;;;;5080675;28;19943;-75
2023/09/25 14:04:36;;;;;;;;;;;25.40;99.90;;;;;;5082828;28;19921;-75
2023/09/25 14:07:03;;;;;;;;;;;25.60;99.90;;;;;;5082915;28;20163;-74
2023/09/25 14:09:30;;;;;;;;;;;25.60;99.90;;;;;;5078266;28;19927;-74
2023/09/25 14:11:58;;;;;;;;;;;25.50;99.90;;;;;;5078430;28;19987;-75
2023/09/25 14:14:24;;;;;;;;;;;25.50;99.90;;;;;;5079821;28;19984;-73
2023/09/25 14:16:51;;;;;;;;;;;25.50;99.90;;;;;;5077529;28;20003;-74
2023/09/25 14:19:18;;;;;;;;;;;25.50;99.90;;;;;;5082575;28;19920;-75
2023/09/25 14:21:44;;;;;;;;;;;25.50;99.90;;;;;;5082855;28;19948;-75
2023/09/25 14:24:11;;;;;;;;;;;25.50;99.90;;;;;;5081509;28;20265;-74